Time;durP1;ratioP1;P1;durP2;ratioP2;P2;SDS_P1;SDS_P2;PMS_P1;PMS_P2;Temp;Humidity;BMP_temperature;BMP_pressure;BME280_temperature;BME280_humidity;BME280_pressure;Samples;Min_cycle;Max_cycle;Signal;HPM_P1;HPM_P2
2022/02/22 00:00:14;;;;;;;8.70;1.90;;;8.30;99.90;;;;;;5032798;28;20294;-85
2022/02/22 00:02:42;;;;;;;6.40;2.25;;;8.30;99.90;;;;;;5031439;28;20448;-85
2022/02/22 00:05:10;;;;;;;8.30;2.07;;;8.40;99.90;;;;;;5030096;28;20247;-84
2022/02/22 00:07:37;;;;;;;5.87;2.20;;;8.40;99.90;;;;;;5030925;28;20459;-85
2022/02/22 00:10:05;;;;;;;6.70;2.25;;;8.50;99.90;;;;;;5024774;28;20470;-85
2022/02/22 00:12:31;;;;;;;4.63;1.30;;;8.30;99.90;;;;;;5023000;28;20203;-86
2022/02/22 00:14:59;;;;;;;7.38;2.00;;;8.30;99.90;;;;;;5023547;28;20243;-86
2022/02/22 00:17:28;;;;;;;10.60;2.20;;;8.30;99.90;;;;;;5022647;28;20211;-86
2022/02/22 00:19:55;;;;;;;7.10;1.87;;;8.40;99.90;;;;;;5022619;28;20538;-86
2022/02/22 00:22:22;;;;;;;7.45;2.00;;;8.30;99.90;;;;;;5025154;28;20485;-86
2022/02/22 00:24:49;;;;;;;8.77;1.80;;;8.30;99.90;;;;;;5022640;28;20232;-86
2022/02/22 00:27:16;;;;;;;7.05;1.55;;;8.30;99.90;;;;;;5021043;28;20211;-86
2022/02/22 00:29:43;;;;;;;5.80;1.58;;;8.30;99.90;;;;;;5021777;28;20234;-86
2022/02/22 00:32:09;;;;;;;6.55;1.73;;;8.30;99.90;;;;;;5022691;28;20286;-86
2022/02/22 00:34:38;;;;;;;4.95;1.48;;;8.30;99.90;;;;;;5023542;28;20239;-85
2022/02/22 00:37:05;;;;;;;4.25;1.52;;;8.30;99.90;;;;;;5023994;28;20207;-83
2022/02/22 00:39:32;;;;;;;8.65;1.30;;;8.20;99.90;;;;;;5022865;28;20288;-84
2022/02/22 00:41:59;;;;;;;6.85;2.20;;;8.10;99.90;;;;;;5022188;28;20238;-84
2022/02/22 00:44:27;;;;;;;7.90;1.42;;;7.90;99.90;;;;;;5021786;28;20229;-84
2022/02/22 00:46:53;;;;;;;9.25;1.70;;;8.10;99.90;;;;;;5029216;28;20626;-84
2022/02/22 00:49:20;;;;;;;9.70;2.03;;;8.10;99.90;;;;;;5027931;28;20237;-85
2022/02/22 00:51:48;;;;;;;5.18;1.80;;;8.00;99.90;;;;;;5022096;28;20568;-85
2022/02/22 00:54:15;;;;;;;4.20;1.50;;;8.00;99.90;;;;;;5022503;28;20241;-85
2022/02/22 00:56:42;;;;;;;7.47;2.10;;;8.10;99.90;;;;;;5021955;28;20260;-85
2022/02/22 00:59:09;;;;;;;7.68;1.70;;;8.20;99.90;;;;;;5020932;28;20775;-85
2022/02/22 01:01:36;;;;;;;7.70;1.70;;;8.20;99.90;;;;;;5021097;28;20234;-86
2022/02/22 01:04:03;;;;;;;5.03;1.50;;;8.20;99.90;;;;;;5021011;28;20458;-86
2022/02/22 01:06:31;;;;;;;6.22;2.25;;;8.20;99.90;;;;;;5021734;28;20302;-86
2022/02/22 01:09:00;;;;;;;3.75;1.50;;;8.10;99.90;;;;;;5021426;28;20704;-86
2022/02/22 01:11:28;;;;;;;4.68;2.00;;;8.10;99.90;;;;;;5021954;28;20230;-85
2022/02/22 01:13:54;;;;;;;4.63;1.55;;;8.00;99.90;;;;;;5024705;28;20227;-86
2022/02/22 01:16:21;;;;;;;9.73;3.15;;;8.00;99.90;;;;;;5021547;28;20213;-85
2022/02/22 01:18:48;;;;;;;7.60;1.83;;;8.00;99.90;;;;;;5021599;28;20704;-84
2022/02/22 01:21:15;;;;;;;7.50;1.80;;;7.90;99.90;;;;;;5029343;28;20593;-84
2022/02/22 01:23:42;;;;;;;4.63;1.40;;;7.60;99.90;;;;;;5035116;28;20294;-85
2022/02/22 01:26:10;;;;;;;6.38;1.73;;;8.00;99.90;;;;;;5030370;28;20241;-85
2022/02/22 01:28:37;;;;;;;6.40;1.65;;;8.00;99.90;;;;;;5026098;28;20208;-86
2022/02/22 01:31:04;;;;;;;8.98;2.28;;;8.00;99.90;;;;;;5021587;28;20258;-85
2022/02/22 01:33:31;;;;;;;4.65;1.30;;;8.00;99.90;;;;;;5021479;28;20222;-86
2022/02/22 01:35:58;;;;;;;8.15;2.20;;;8.00;99.90;;;;;;5020956;28;20298;-85
2022/02/22 01:38:24;;;;;;;7.13;1.40;;;7.90;99.90;;;;;;5021141;28;20253;-86
2022/02/22 01:40:55;;;;;;;6.00;1.60;;;8.10;99.90;;;;;;5021751;28;20306;-84
2022/02/22 01:43:24;;;;;;;7.68;1.60;;;8.10;99.90;;;;;;5024748;28;20207;-86
2022/02/22 01:45:51;;;;;;;7.57;1.75;;;7.90;99.90;;;;;;5033927;28;20227;-85
2022/02/22 01:48:17;;;;;;;4.60;1.73;;;7.90;99.90;;;;;;5024150;28;20237;-85
2022/02/22 01:50:44;;;;;;;7.25;2.30;;;7.70;99.90;;;;;;5023209;28;20298;-84
2022/02/22 01:53:11;;;;;;;8.13;2.13;;;7.60;99.90;;;;;;5024464;28;20680;-84
2022/02/22 01:55:38;;;;;;;6.90;2.10;;;7.70;99.90;;;;;;5028080;28;20278;-85
2022/02/22 01:58:05;;;;;;;5.97;1.80;;;7.20;99.90;;;;;;5029128;28;20207;-85
2022/02/22 02:00:33;;;;;;;4.93;1.55;;;7.60;99.90;;;;;;5023865;28;20234;-85
2022/02/22 02:03:01;;;;;;;9.82;1.90;;;7.70;99.90;;;;;;5021664;28;20317;-86
2022/02/22 02:05:28;;;;;;;4.72;1.65;;;7.60;99.90;;;;;;5025552;28;20210;-84
2022/02/22 02:07:55;;;;;;;6.38;1.70;;;7.50;99.90;;;;;;5025787;28;20632;-84
2022/02/22 02:10:22;;;;;;;4.18;1.10;;;7.50;99.90;;;;;;5028353;28;20286;-84
2022/02/22 02:12:49;;;;;;;9.05;2.10;;;7.50;99.90;;;;;;5034379;28;20203;-83
2022/02/22 02:15:16;;;;;;;6.55;2.08;;;7.30;99.90;;;;;;5038374;28;20198;-84
2022/02/22 02:17:44;;;;;;;5.53;1.30;;;7.50;99.90;;;;;;5035925;28;20264;-83
2022/02/22 02:20:12;;;;;;;9.38;1.92;;;7.50;99.90;;;;;;5032062;28;20266;-83
2022/02/22 02:22:43;;;;;;;5.20;1.90;;;7.50;99.90;;;;;;5027902;28;20253;-84
2022/02/22 02:25:11;;;;;;;4.78;2.15;;;7.50;99.90;;;;;;5027528;28;20273;-84
2022/02/22 02:27:38;;;;;;;5.05;1.30;;;7.30;99.90;;;;;;5024475;28;20215;-85
2022/02/22 02:30:07;;;;;;;7.45;2.30;;;7.10;99.90;;;;;;5028799;28;20321;-84
2022/02/22 02:32:34;;;;;;;8.70;2.38;;;7.30;99.90;;;;;;5030407;28;20203;-84
2022/02/22 02:35:01;;;;;;;7.47;1.70;;;7.30;99.90;;;;;;5034798;28;20199;-83
2022/02/22 02:37:28;;;;;;;9.55;2.03;;;7.30;99.90;;;;;;5038407;28;20210;-83
2022/02/22 03:06:29;;;;;;;7.95;1.92;;;7.00;99.90;;;;;;5516908;23;20246;-86
2022/02/22 03:11:33;;;;;;;7.70;1.90;;;7.40;99.90;;;;;;5735850;23;20223;-86
2022/02/22 03:26:27;;;;;;;7.97;2.55;;;7.30;99.90;;;;;;5053917;28;20190;-86
2022/02/22 03:29:06;;;;;;;6.57;2.33;;;7.10;99.90;;;;;;5025686;28;20279;-86
2022/02/22 03:46:03;;;;;;;8.60;2.08;;;7.00;99.90;;;;;;5345350;23;20250;-85
2022/02/22 04:14:46;;;;;;;7.43;2.30;;;7.00;99.90;;;;;;5050822;23;20234;-86
2022/02/22 04:17:17;;;;;;;5.60;2.00;;;6.90;99.90;;;;;;5035566;28;20276;-85
2022/02/22 04:19:55;;;;;;;5.22;2.03;;;7.20;99.90;;;;;;5037229;28;20221;-87
2022/02/22 04:25:39;;;;;;;6.75;1.83;;;7.00;99.90;;;;;;5031854;28;20237;-86
2022/02/22 04:28:39;;;;;;;7.30;2.35;;;6.90;99.90;;;;;;5033655;28;20238;-86
2022/02/22 04:31:26;;;;;;;4.82;1.85;;;7.10;99.90;;;;;;5038162;28;20293;-87
2022/02/22 04:33:55;;;;;;;5.97;1.90;;;6.90;99.90;;;;;;5200156;23;20493;-86
2022/02/22 04:36:22;;;;;;;9.65;2.30;;;7.20;99.90;;;;;;5018016;28;20219;-87
2022/02/22 04:39:00;;;;;;;7.90;2.67;;;7.10;99.90;;;;;;5017088;28;20223;-86
2022/02/22 04:53:08;;;;;;;10.00;2.58;;;7.00;99.90;;;;;;4989340;28;20538;-86
2022/02/22 04:55:45;;;;;;;7.85;2.30;;;7.10;99.90;;;;;;5090362;23;20237;-85
2022/02/22 04:58:24;;;;;;;4.78;1.63;;;7.30;99.90;;;;;;5052189;28;20194;-86
2022/02/22 05:00:58;;;;;;;9.25;2.10;;;6.90;99.90;;;;;;5050043;23;20238;-86
2022/02/22 05:03:36;;;;;;;7.47;2.35;;;6.80;99.90;;;;;;5035810;28;20243;-86
2022/02/22 05:08:41;;;;;;;8.27;2.20;;;7.00;99.90;;;;;;5033019;28;20219;-87
2022/02/22 05:11:23;;;;;;;6.35;1.90;;;6.80;99.90;;;;;;5034870;28;20230;-87
2022/02/22 05:13:54;;;;;;;7.60;3.10;;;6.70;99.90;;;;;;5033970;28;20206;-86
2022/02/22 05:16:27;;;;;;;6.70;2.33;;;6.70;99.90;;;;;;5031000;28;20213;-86
2022/02/22 05:18:54;;;;;;;5.82;2.15;;;6.80;99.90;;;;;;5075217;23;20242;-87
2022/02/22 05:21:20;;;;;;;10.82;2.28;;;6.60;99.90;;;;;;5052915;28;20221;-87
2022/02/22 05:23:52;;;;;;;6.82;2.40;;;6.80;99.90;;;;;;5049242;28;20559;-86
2022/02/22 05:26:19;;;;;;;4.40;1.95;;;6.90;99.90;;;;;;5057709;28;20201;-87
2022/02/22 05:28:47;;;;;;;6.95;2.20;;;7.00;99.90;;;;;;5058034;28;20237;-86
2022/02/22 05:31:16;;;;;;;7.68;2.22;;;6.90;99.90;;;;;;5055409;28;20260;-86
2022/02/22 05:33:43;;;;;;;5.47;2.30;;;6.70;99.90;;;;;;5050533;28;20216;-87
2022/02/22 05:36:11;;;;;;;5.60;1.95;;;6.80;99.90;;;;;;5046438;28;20216;-87
2022/02/22 05:39:06;;;;;;;9.18;2.00;;;6.70;99.90;;;;;;5052254;28;20310;-87
2022/02/22 05:41:33;;;;;;;7.30;3.10;;;6.90;99.90;;;;;;5029000;28;20214;-87
2022/02/22 05:44:00;;;;;;;8.40;2.22;;;6.70;99.90;;;;;;5051892;28;20224;-87
2022/02/22 05:46:27;;;;;;;9.25;1.92;;;6.50;99.90;;;;;;5048448;28;20282;-87
2022/02/22 05:48:54;;;;;;;8.50;1.98;;;6.70;99.90;;;;;;5050179;28;20233;-87
2022/02/22 05:51:21;;;;;;;7.72;2.65;;;6.80;99.90;;;;;;5051061;28;20227;-87
2022/02/22 05:53:51;;;;;;;6.13;2.30;;;6.50;99.90;;;;;;5046716;28;20252;-87
2022/02/22 05:56:19;;;;;;;7.80;2.15;;;6.50;99.90;;;;;;5041565;28;20249;-87
2022/02/22 05:58:46;;;;;;;11.50;2.17;;;6.50;99.90;;;;;;5042249;28;20263;-87
2022/02/22 06:01:13;;;;;;;9.93;2.50;;;6.50;99.90;;;;;;5045674;28;20303;-87
2022/02/22 06:03:40;;;;;;;6.57;2.20;;;6.60;99.90;;;;;;5046883;28;20226;-87
2022/02/22 06:06:07;;;;;;;6.40;1.70;;;6.70;99.90;;;;;;5047884;28;20216;-87
2022/02/22 06:08:34;;;;;;;6.88;2.10;;;6.70;99.90;;;;;;5047536;28;20224;-86
2022/02/22 06:11:01;;;;;;;8.10;2.05;;;6.70;99.90;;;;;;5045410;28;20331;-87
2022/02/22 06:13:29;;;;;;;6.47;2.38;;;6.70;99.90;;;;;;5044850;28;20206;-88
2022/02/22 06:15:56;;;;;;;11.63;2.15;;;6.70;99.90;;;;;;5044907;28;20238;-88
2022/02/22 06:18:23;;;;;;;9.95;3.22;;;6.40;99.90;;;;;;5045235;28;20237;-88
2022/02/22 06:20:49;;;;;;;8.60;2.88;;;6.60;99.90;;;;;;5047931;28;20237;-88
2022/02/22 06:23:16;;;;;;;7.18;2.30;;;6.50;99.90;;;;;;5050371;28;20229;-87
2022/02/22 06:25:43;;;;;;;13.98;3.20;;;6.50;99.90;;;;;;5046116;28;20253;-85
2022/02/22 06:28:12;;;;;;;4.82;1.73;;;6.50;99.90;;;;;;5042270;28;20707;-87
2022/02/22 06:30:40;;;;;;;7.35;2.45;;;6.70;99.90;;;;;;5043784;28;20287;-86
2022/02/22 06:33:08;;;;;;;6.35;2.67;;;6.60;99.90;;;;;;5047263;28;20240;-87
2022/02/22 06:35:35;;;;;;;13.20;3.88;;;6.50;99.90;;;;;;5045450;28;20244;-87
2022/02/22 06:38:02;;;;;;;10.20;3.53;;;6.60;99.90;;;;;;5044360;28;20214;-87
2022/02/22 06:40:29;;;;;;;11.20;2.80;;;6.50;99.90;;;;;;5043607;28;20302;-87
2022/02/22 06:42:56;;;;;;;8.27;2.97;;;6.60;99.90;;;;;;5044536;28;20228;-87
2022/02/22 06:45:23;;;;;;;11.98;3.42;;;6.70;99.90;;;;;;5045443;28;20670;-87
2022/02/22 06:47:51;;;;;;;7.32;2.60;;;6.70;99.90;;;;;;5045401;28;20245;-87
2022/02/22 06:50:18;;;;;;;13.88;2.92;;;6.60;99.90;;;;;;5046369;28;20229;-87
2022/02/22 06:52:45;;;;;;;11.73;3.38;;;6.60;99.90;;;;;;5045769;28;20206;-89
2022/02/22 06:55:14;;;;;;;15.30;3.17;;;6.80;99.90;;;;;;5044966;28;20225;-87
2022/02/22 06:57:44;;;;;;;7.80;3.08;;;6.80;99.90;;;;;;5046681;28;20290;-87
2022/02/22 07:00:13;;;;;;;12.35;3.10;;;6.90;99.90;;;;;;5055111;28;20213;-87
2022/02/22 07:02:41;;;;;;;6.57;2.60;;;6.80;99.90;;;;;;5052449;28;20226;-86
2022/02/22 07:05:10;;;;;;;13.20;2.97;;;6.60;99.90;;;;;;5048725;28;20198;-88
2022/02/22 07:07:38;;;;;;;11.00;2.83;;;6.80;99.90;;;;;;5054660;28;20210;-87
2022/02/22 07:10:06;;;;;;;6.35;2.88;;;6.70;99.90;;;;;;5047243;28;20233;-88
2022/02/22 07:12:33;;;;;;;8.93;3.00;;;6.90;99.90;;;;;;5044304;28;20303;-87
2022/02/22 07:15:00;;;;;;;9.90;3.85;;;6.70;99.90;;;;;;5045174;28;20211;-87
2022/02/22 07:17:28;;;;;;;5.93;2.42;;;6.70;99.90;;;;;;5042829;28;20630;-88
2022/02/22 07:19:55;;;;;;;10.40;3.10;;;6.60;99.90;;;;;;5044361;28;20669;-88
2022/02/22 07:22:22;;;;;;;5.30;2.75;;;6.60;99.90;;;;;;5045649;28;20288;-87
2022/02/22 07:24:49;;;;;;;8.52;2.92;;;6.80;99.90;;;;;;5043590;28;20237;-86
2022/02/22 07:27:16;;;;;;;7.53;2.90;;;7.00;99.90;;;;;;5041544;28;20301;-86
2022/02/22 07:29:42;;;;;;;6.40;3.35;;;6.90;99.90;;;;;;5046282;28;20226;-87
2022/02/22 07:32:10;;;;;;;14.07;4.85;;;7.00;99.90;;;;;;5038709;28;20210;-87
2022/02/22 07:34:39;;;;;;;8.52;3.22;;;6.90;99.90;;;;;;5039496;28;20272;-86
2022/02/22 07:37:06;;;;;;;6.97;2.95;;;7.00;99.90;;;;;;5049466;28;20236;-86
2022/02/22 07:39:33;;;;;;;9.32;2.40;;;7.10;99.90;;;;;;5045470;28;20229;-87
2022/02/22 07:42:00;;;;;;;15.25;2.63;;;6.80;99.90;;;;;;5045576;28;20210;-87
2022/02/22 07:44:27;;;;;;;8.57;2.47;;;7.30;99.90;;;;;;5049186;28;20308;-88
2022/02/22 07:46:54;;;;;;;10.27;3.33;;;7.10;99.90;;;;;;5046740;28;20225;-88
2022/02/22 07:49:21;;;;;;;6.15;2.67;;;7.20;99.90;;;;;;5045452;28;20241;-87
2022/02/22 07:51:50;;;;;;;8.07;2.47;;;7.20;99.90;;;;;;5044208;28;20245;-88
2022/02/22 07:54:16;;;;;;;5.68;2.70;;;7.10;99.90;;;;;;5043614;28;20612;-88
2022/02/22 07:56:44;;;;;;;7.60;2.90;;;7.20;99.90;;;;;;5048249;28;20202;-87
2022/02/22 07:59:11;;;;;;;6.55;2.90;;;7.30;99.90;;;;;;5047964;28;20260;-87
2022/02/22 08:01:41;;;;;;;11.43;3.13;;;7.20;99.90;;;;;;5044517;28;20237;-88
2022/02/22 08:04:08;;;;;;;12.38;2.85;;;7.40;99.90;;;;;;5044573;28;20222;-87
2022/02/22 08:06:35;;;;;;;10.70;2.88;;;7.30;99.90;;;;;;5044442;28;20260;-88
2022/02/22 08:09:06;;;;;;;11.57;2.55;;;7.30;99.90;;;;;;5046075;28;20206;-86
2022/02/22 08:11:33;;;;;;;8.43;2.90;;;7.50;99.90;;;;;;5046011;28;20226;-87
2022/02/22 08:14:03;;;;;;;8.88;2.05;;;7.40;99.90;;;;;;5046207;28;20205;-87
2022/02/22 08:16:30;;;;;;;6.40;2.35;;;7.50;99.90;;;;;;5056516;28;20262;-88
2022/02/22 08:18:58;;;;;;;7.18;2.60;;;7.20;99.90;;;;;;5043585;28;20222;-87
2022/02/22 08:21:27;;;;;;;10.02;2.65;;;7.50;99.90;;;;;;5042165;28;20261;-88
2022/02/22 08:23:57;;;;;;;9.07;2.42;;;7.70;99.90;;;;;;5043272;28;20226;-88
2022/02/22 08:26:25;;;;;;;11.88;2.33;;;7.80;99.90;;;;;;5044297;28;20210;-88
2022/02/22 08:28:52;;;;;;;5.50;2.20;;;7.80;99.90;;;;;;5045583;28;20221;-88
2022/02/22 08:31:20;;;;;;;7.57;2.55;;;7.90;99.90;;;;;;5048144;28;20246;-87
2022/02/22 08:33:47;;;;;;;7.53;2.45;;;8.00;99.90;;;;;;5046988;28;20241;-88
2022/02/22 08:36:14;;;;;;;12.98;3.10;;;8.00;99.90;;;;;;5046882;28;20280;-88
2022/02/22 08:38:42;;;;;;;11.13;3.15;;;8.10;99.90;;;;;;5045846;28;20229;-87
2022/02/22 08:41:09;;;;;;;13.33;3.20;;;8.10;99.90;;;;;;5053491;23;20231;-85
2022/02/22 08:43:39;;;;;;;9.67;3.07;;;8.30;99.90;;;;;;5024130;28;20490;-86
2022/02/22 08:46:06;;;;;;;13.73;2.70;;;8.50;99.90;;;;;;5021236;28;20549;-85
2022/02/22 08:48:33;;;;;;;11.63;2.47;;;8.50;99.90;;;;;;5024694;28;20435;-85
2022/02/22 08:50:59;;;;;;;8.33;2.80;;;8.50;99.90;;;;;;5032294;28;20473;-86
2022/02/22 08:53:26;;;;;;;7.72;3.10;;;8.50;99.90;;;;;;5023605;28;20478;-86
2022/02/22 08:55:53;;;;;;;6.23;2.43;;;8.70;99.90;;;;;;5021898;28;20207;-86
2022/02/22 08:58:20;;;;;;;6.87;2.53;;;8.80;99.90;;;;;;5022076;28;20981;-86
2022/02/22 09:00:48;;;;;;;7.70;2.60;;;8.70;99.90;;;;;;5022516;28;20554;-84
2022/02/22 09:03:15;;;;;;;30.67;4.93;;;8.80;99.90;;;;;;5022741;28;20489;-84
2022/02/22 09:05:42;;;;;;;9.33;2.90;;;8.70;99.90;;;;;;5024471;28;20482;-85
2022/02/22 09:08:09;;;;;;;7.10;2.70;;;8.90;99.90;;;;;;5023954;28;20486;-85
2022/02/22 09:10:36;;;;;;;6.67;1.93;;;8.90;99.90;;;;;;5034891;28;20459;-82
2022/02/22 09:13:03;;;;;;;5.97;2.17;;;8.80;99.90;;;;;;5038611;28;20447;-82
2022/02/22 09:15:31;;;;;;;9.60;3.30;;;8.90;99.90;;;;;;5031998;28;20454;-85
2022/02/22 09:18:01;;;;;;;7.85;2.00;;;8.90;99.90;;;;;;5036732;28;20278;-83
2022/02/22 09:20:28;;;;;;;5.27;1.80;;;9.00;99.90;;;;;;5039284;28;20212;-85
2022/02/22 09:22:55;;;;;;;5.87;1.43;;;9.00;99.90;;;;;;5030480;28;20499;-84
2022/02/22 09:25:23;;;;;;;7.15;2.08;;;8.90;99.90;;;;;;5024703;28;20542;-85
2022/02/22 09:27:51;;;;;;;6.20;2.10;;;8.90;99.90;;;;;;5028699;28;20667;-86
2022/02/22 09:30:20;;;;;;;9.50;1.93;;;8.90;99.90;;;;;;5038422;28;20489;-86
2022/02/22 09:32:49;;;;;;;10.90;2.00;;;9.00;99.90;;;;;;5035180;28;20460;-85
2022/02/22 09:35:19;;;;;;;7.10;2.50;;;9.10;99.90;;;;;;5025943;28;20525;-86
2022/02/22 09:37:46;;;;;;;6.43;2.00;;;9.20;99.90;;;;;;5026157;28;20446;-86
2022/02/22 09:40:14;;;;;;;7.23;2.03;;;9.20;99.90;;;;;;5030969;28;20488;-85
2022/02/22 09:42:42;;;;;;;6.53;1.83;;;9.30;99.90;;;;;;5022185;28;20454;-85
2022/02/22 09:45:10;;;;;;;8.23;2.17;;;9.20;99.90;;;;;;5021679;28;20438;-86
2022/02/22 09:47:37;;;;;;;6.70;2.83;;;9.40;99.90;;;;;;5021069;28;20875;-86
2022/02/22 09:50:06;;;;;;;8.40;2.20;;;9.30;99.90;;;;;;5029426;28;20466;-85
2022/02/22 09:52:34;;;;;;;7.40;2.00;;;9.20;99.90;;;;;;5033485;28;20466;-84
2022/02/22 09:55:02;;;;;;;6.63;2.33;;;9.20;99.90;;;;;;5032495;28;20477;-87
2022/02/22 09:57:29;;;;;;;5.27;2.00;;;9.30;99.90;;;;;;5033508;28;20456;-86
2022/02/22 09:59:56;;;;;;;9.43;2.53;;;9.40;99.90;;;;;;5035272;28;20479;-86
2022/02/22 10:02:23;;;;;;;6.33;2.27;;;9.40;99.90;;;;;;5036253;28;20493;-84
2022/02/22 10:04:51;;;;;;;8.80;2.50;;;9.60;99.90;;;;;;5034131;28;20474;-85
2022/02/22 10:07:18;;;;;;;6.93;2.57;;;9.60;99.90;;;;;;5034129;28;20450;-85
2022/02/22 10:09:55;;;;;;;10.17;2.50;;;9.50;99.90;;;;;;5029105;28;20788;-85
2022/02/22 10:12:35;;;;;;;7.40;3.00;;;9.70;99.90;;;;;;5029337;28;20533;-85
2022/02/22 10:15:03;;;;;;;8.43;2.67;;;9.70;99.90;;;;;;5031088;28;20431;-85
2022/02/22 10:17:36;;;;;;;8.20;1.93;;;9.80;99.90;;;;;;5026780;28;20454;-84
2022/02/22 10:20:05;;;;;;;11.37;3.20;;;10.00;99.90;;;;;;5022768;28;20481;-85
2022/02/22 10:22:33;;;;;;;6.93;2.40;;;10.10;99.90;;;;;;5031644;28;20437;-86
2022/02/22 10:25:06;;;;;;;11.73;2.50;;;10.30;99.90;;;;;;5025779;28;20572;-85
2022/02/22 10:27:43;;;;;;;12.83;2.90;;;10.20;99.90;;;;;;5020382;28;20442;-86
2022/02/22 10:30:25;;;;;;;14.83;2.77;;;10.10;99.90;;;;;;5020177;28;20537;-86
2022/02/22 10:32:51;;;;;;;11.00;2.93;;;10.00;99.90;;;;;;5021271;28;20461;-85
2022/02/22 10:35:31;;;;;;;14.93;3.00;;;10.00;99.90;;;;;;5020822;28;20958;-86
2022/02/22 10:37:59;;;;;;;10.27;3.37;;;10.00;99.90;;;;;;5021399;28;20411;-87
2022/02/22 10:40:32;;;;;;;6.17;2.23;;;10.10;99.90;;;;;;5023694;28;20515;-86
2022/02/22 10:42:59;;;;;;;9.70;4.27;;;10.20;99.90;;;;;;5025294;28;20466;-86
2022/02/22 10:45:26;;;;;;;9.57;2.70;;;10.20;99.90;;;;;;5024220;28;20857;-86
2022/02/22 10:47:55;;;;;;;9.40;2.87;;;10.40;99.90;;;;;;5030306;28;20450;-87
2022/02/22 10:50:31;;;;;;;8.80;2.73;;;10.50;99.90;;;;;;5022235;28;20480;-86
2022/02/22 10:52:59;;;;;;;8.20;2.90;;;10.40;99.90;;;;;;5023762;28;20755;-86
2022/02/22 10:55:30;;;;;;;8.10;2.50;;;10.50;99.90;;;;;;5026783;28;20441;-86
2022/02/22 10:57:57;;;;;;;13.70;2.90;;;10.60;99.90;;;;;;5032034;28;20457;-86
2022/02/22 11:00:24;;;;;;;6.30;2.13;;;10.60;99.90;;;;;;5019724;28;20489;-85
2022/02/22 11:02:51;;;;;;;7.50;2.57;;;10.70;99.90;;;;;;5021195;28;20489;-85
2022/02/22 11:05:18;;;;;;;6.20;2.50;;;10.70;99.90;;;;;;5021602;28;20481;-84
2022/02/22 11:07:52;;;;;;;9.23;2.47;;;10.80;99.90;;;;;;5022063;28;20443;-87
2022/02/22 11:10:21;;;;;;;10.03;3.10;;;10.80;99.90;;;;;;5021069;28;20516;-85
2022/02/22 11:12:59;;;;;;;9.00;2.43;;;10.70;99.90;;;;;;5036975;28;20463;-84
2022/02/22 11:15:37;;;;;;;9.97;2.77;;;10.60;99.90;;;;;;5022729;28;20979;-84
2022/02/22 11:18:16;;;;;;;8.10;2.87;;;10.40;99.90;;;;;;5026482;28;20518;-86
2022/02/22 11:20:43;;;;;;;9.33;2.77;;;10.40;99.90;;;;;;5020498;28;20470;-86
2022/02/22 11:23:15;;;;;;;5.93;2.50;;;10.40;99.90;;;;;;5019156;28;20454;-85
2022/02/22 11:25:46;;;;;;;8.47;2.63;;;10.30;99.90;;;;;;5021396;28;20442;-86
2022/02/22 11:28:15;;;;;;;10.57;2.30;;;10.20;99.90;;;;;;5020855;28;20855;-85
2022/02/22 11:30:43;;;;;;;9.23;3.00;;;10.40;99.90;;;;;;5019559;28;20542;-86
2022/02/22 11:33:13;;;;;;;6.67;2.07;;;10.50;99.90;;;;;;5020973;28;20461;-86
2022/02/22 11:35:49;;;;;;;11.53;3.80;;;10.50;99.90;;;;;;5020355;28;20482;-86
2022/02/22 11:38:18;;;;;;;14.13;3.37;;;10.50;99.90;;;;;;5021075;28;20438;-86
2022/02/22 11:40:48;;;;;;;7.43;2.50;;;10.40;99.90;;;;;;5022423;28;20592;-85
2022/02/22 11:43:18;;;;;;;11.60;3.43;;;10.50;99.90;;;;;;5021445;28;20519;-85
2022/02/22 11:45:47;;;;;;;8.90;2.10;;;10.60;99.90;;;;;;5022137;28;20515;-86
2022/02/22 11:48:16;;;;;;;6.27;2.57;;;10.80;99.90;;;;;;5026085;28;20481;-85
2022/02/22 11:50:45;;;;;;;9.87;2.90;;;10.70;99.90;;;;;;5032242;28;20473;-85
2022/02/22 11:53:13;;;;;;;12.17;2.73;;;10.70;99.90;;;;;;5030689;28;20482;-85
2022/02/22 11:55:41;;;;;;;7.90;2.47;;;10.60;99.90;;;;;;5024094;28;20530;-85
2022/02/22 11:58:12;;;;;;;9.00;2.63;;;10.70;99.90;;;;;;5021461;28;20465;-86
2022/02/22 12:00:40;;;;;;;10.77;2.30;;;10.60;99.90;;;;;;5024593;28;20498;-87
2022/02/22 12:03:10;;;;;;;9.97;2.83;;;10.70;99.90;;;;;;5023624;28;20990;-88
2022/02/22 12:05:40;;;;;;;7.80;2.40;;;10.70;99.90;;;;;;5021374;28;20464;-85
2022/02/22 12:08:10;;;;;;;8.97;2.50;;;10.80;99.90;;;;;;5019770;28;20506;-85
2022/02/22 12:10:46;;;;;;;7.67;2.97;;;10.90;99.90;;;;;;5021030;28;20524;-87
2022/02/22 12:13:14;;;;;;;10.50;2.77;;;11.00;99.90;;;;;;5021772;28;20446;-87
2022/02/22 12:15:43;;;;;;;8.43;2.70;;;11.10;99.90;;;;;;5025641;28;20478;-87
2022/02/22 12:18:14;;;;;;;8.43;2.90;;;11.10;99.90;;;;;;5022942;28;20453;-87
2022/02/22 12:20:43;;;;;;;8.83;2.53;;;11.00;99.90;;;;;;5022711;28;20474;-87
2022/02/22 12:23:16;;;;;;;11.63;3.43;;;11.00;99.90;;;;;;5024324;28;20518;-87
2022/02/22 12:25:43;;;;;;;7.17;2.70;;;10.90;99.90;;;;;;5036279;28;20561;-86
2022/02/22 12:28:10;;;;;;;8.23;2.30;;;10.90;99.90;;;;;;5039945;28;20446;-86
2022/02/22 12:30:38;;;;;;;11.90;2.57;;;10.90;99.90;;;;;;5030716;28;20862;-87
2022/02/22 12:33:08;;;;;;;7.47;2.70;;;10.80;99.90;;;;;;5025573;28;20775;-87
2022/02/22 12:35:38;;;;;;;6.93;2.00;;;10.80;99.90;;;;;;5035767;28;20437;-86
2022/02/22 12:38:16;;;;;;;6.03;2.30;;;10.90;99.90;;;;;;5038178;28;20459;-86
2022/02/22 12:40:44;;;;;;;6.73;2.37;;;10.90;99.90;;;;;;5030996;28;20473;-86
2022/02/22 12:43:12;;;;;;;8.80;2.53;;;10.90;99.90;;;;;;5025125;28;20429;-86
2022/02/22 12:45:43;;;;;;;6.93;2.50;;;11.00;99.90;;;;;;5023951;28;20545;-87
2022/02/22 12:48:12;;;;;;;8.47;2.87;;;11.10;99.90;;;;;;5026748;28;20439;-87
2022/02/22 12:50:38;;;;;;;8.43;2.97;;;11.10;99.90;;;;;;5027424;28;20887;-87
2022/02/22 12:53:06;;;;;;;11.90;3.10;;;11.10;99.90;;;;;;5026206;28;20879;-87
2022/02/22 12:55:35;;;;;;;7.70;2.37;;;11.20;99.90;;;;;;5024344;28;20515;-87
2022/02/22 12:58:06;;;;;;;9.20;2.80;;;11.20;99.90;;;;;;5025177;28;20895;-87
2022/02/22 13:00:33;;;;;;;12.53;4.10;;;11.40;99.90;;;;;;5024979;28;20541;-87
2022/02/22 13:03:09;;;;;;;8.70;2.70;;;11.40;99.90;;;;;;5024391;28;20478;-87
2022/02/22 13:05:41;;;;;;;12.23;3.10;;;11.40;99.90;;;;;;5026837;28;20520;-86
2022/02/22 13:08:10;;;;;;;7.77;2.80;;;11.40;99.60;;;;;;5023845;28;20433;-85
2022/02/22 13:10:42;;;;;;;10.83;2.77;;;11.40;99.30;;;;;;5034008;28;20462;-84
2022/02/22 13:13:10;;;;;;;8.57;2.90;;;11.40;99.30;;;;;;5033189;28;20507;-86
2022/02/22 13:15:36;;;;;;;11.13;2.80;;;11.60;99.30;;;;;;5028386;28;20420;-86
2022/02/22 13:18:18;;;;;;;9.47;2.87;;;11.60;99.00;;;;;;5022511;28;20489;-86
2022/02/22 13:20:49;;;;;;;17.13;3.17;;;11.50;99.20;;;;;;5023925;28;20448;-86
2022/02/22 13:23:16;;;;;;;10.90;2.77;;;11.60;99.20;;;;;;5021779;28;20442;-86
2022/02/22 13:25:44;;;;;;;9.93;3.10;;;11.80;99.00;;;;;;5022955;28;20538;-86
2022/02/22 13:28:12;;;;;;;8.90;2.97;;;11.90;99.00;;;;;;5025582;28;20444;-84
2022/02/22 13:30:39;;;;;;;11.60;3.23;;;11.90;98.10;;;;;;5029836;28;20955;-86
2022/02/22 13:33:10;;;;;;;9.07;2.83;;;11.80;97.80;;;;;;5032047;28;20439;-84
2022/02/22 13:35:37;;;;;;;15.07;3.53;;;11.80;97.90;;;;;;5025997;28;20458;-85
2022/02/22 13:38:17;;;;;;;13.80;4.63;;;11.70;97.90;;;;;;5023705;28;20436;-85
2022/02/22 13:40:44;;;;;;;9.20;2.63;;;11.80;98.00;;;;;;5024915;28;20505;-86
2022/02/22 13:43:13;;;;;;;8.20;2.77;;;11.70;97.70;;;;;;5024204;28;20454;-86
2022/02/22 13:45:42;;;;;;;9.80;2.97;;;11.70;97.70;;;;;;5026364;28;20486;-87
2022/02/22 13:48:12;;;;;;;8.93;3.10;;;11.60;97.60;;;;;;5022869;28;20474;-86
2022/02/22 13:50:39;;;;;;;11.03;2.80;;;11.40;97.70;;;;;;5022750;28;20482;-87
2022/02/22 13:53:08;;;;;;;14.83;3.00;;;11.30;98.10;;;;;;5022458;28;20517;-86
2022/02/22 13:55:47;;;;;;;10.00;2.30;;;11.40;98.00;;;;;;5024334;28;20450;-87
2022/02/22 13:58:20;;;;;;;12.00;2.90;;;11.40;97.90;;;;;;5024474;28;20958;-87
2022/02/22 14:01:11;;;;;;;6.80;2.70;;;11.40;97.70;;;;;;5025297;28;20451;-86
2022/02/22 14:03:41;;;;;;;17.67;3.80;;;11.50;97.10;;;;;;5030942;28;20446;-86
2022/02/22 14:06:08;;;;;;;12.00;2.73;;;11.50;97.10;;;;;;5023335;28;20519;-86
2022/02/22 14:08:35;;;;;;;12.13;2.83;;;11.50;96.60;;;;;;5023102;28;20439;-85
2022/02/22 14:11:03;;;;;;;7.97;2.60;;;11.40;96.30;;;;;;5024573;28;20476;-86
2022/02/22 14:13:35;;;;;;;10.53;2.90;;;11.50;96.90;;;;;;5022086;28;20518;-86
2022/02/22 14:16:03;;;;;;;13.73;2.93;;;11.40;96.50;;;;;;5024001;28;20413;-86
2022/02/22 14:18:30;;;;;;;7.10;2.83;;;11.50;96.30;;;;;;5021817;28;20429;-84
2022/02/22 14:20:56;;;;;;;11.27;2.37;;;11.40;96.50;;;;;;5022449;28;20561;-85
2022/02/22 14:23:25;;;;;;;11.17;3.40;;;11.40;96.80;;;;;;5021897;28;20450;-85
2022/02/22 14:25:54;;;;;;;14.13;3.27;;;11.40;96.80;;;;;;5021721;28;20482;-85
2022/02/22 14:28:22;;;;;;;11.40;2.77;;;11.30;97.10;;;;;;5021169;28;20614;-86
2022/02/22 14:30:50;;;;;;;10.87;3.13;;;11.40;97.30;;;;;;5020499;28;20486;-85
2022/02/22 14:33:17;;;;;;;10.70;2.83;;;11.30;97.20;;;;;;5021677;28;20450;-86
2022/02/22 14:35:43;;;;;;;12.20;2.67;;;11.30;97.00;;;;;;5020952;28;20533;-84
2022/02/22 14:38:10;;;;;;;4.80;2.60;;;11.30;96.80;;;;;;5020990;28;20516;-85